createdAt,value
2022-12-17T00:02:39.114Z,24.10
2022-12-17T00:05:57.084Z,24.10
2022-12-17T00:09:22.468Z,24.10
2022-12-17T00:12:39.948Z,24.10
2022-12-17T00:15:58.550Z,24.10
2022-12-17T00:19:16.010Z,24.10
2022-12-17T00:22:28.035Z,24.10
2022-12-17T00:25:40.067Z,24.10
2022-12-17T00:28:52.088Z,24.10
2022-12-17T00:32:10.120Z,24.10
2022-12-17T00:35:28.695Z,24.10
2022-12-17T00:38:52.173Z,24.10
2022-12-17T00:42:04.227Z,24.10
2022-12-17T00:45:21.478Z,24.10
2022-12-17T00:48:34.466Z,24.10
2022-12-17T00:51:57.558Z,24.10
2022-12-17T00:55:10.328Z,24.10
2022-12-17T00:58:40.361Z,24.10
2022-12-17T01:02:04.518Z,24.10
2022-12-17T01:05:22.416Z,24.10
2022-12-17T01:08:46.979Z,24.10
2022-12-17T01:12:04.470Z,24.10
2022-12-17T01:16:11.084Z,24.10
2022-12-17T01:23:29.102Z,24.00
2022-12-17T01:27:11.132Z,24.00
2022-12-17T01:34:29.215Z,24.10
2022-12-17T01:38:05.227Z,24.00
2022-12-17T01:41:23.257Z,24.10
2022-12-17T01:45:29.441Z,24.00
2022-12-17T01:49:17.325Z,24.00
2022-12-17T01:53:05.358Z,24.00
2022-12-17T01:56:35.389Z,24.00
2022-12-17T02:00:17.417Z,24.00
2022-12-17T02:04:17.452Z,24.00
2022-12-17T02:08:11.482Z,24.00
2022-12-17T02:11:53.512Z,24.00
2022-12-17T02:22:47.614Z,24.00
2022-12-17T02:26:47.647Z,24.00
2022-12-17T02:34:17.719Z,24.00
2022-12-17T02:37:53.755Z,24.00
2022-12-17T03:42:54.314Z,23.90
2022-12-17T05:28:38.127Z,23.80
2022-12-17T06:01:27.231Z,23.70
2022-12-17T06:05:15.202Z,23.70
2022-12-17T06:09:15.345Z,23.70
2022-12-17T06:12:32.760Z,23.70
2022-12-17T06:20:08.829Z,23.70
2022-12-17T06:23:39.081Z,23.70
2022-12-17T06:27:32.890Z,23.70
2022-12-17T06:30:56.920Z,23.70
2022-12-17T06:34:38.953Z,23.70
2022-12-17T06:38:32.984Z,23.70
2022-12-17T06:42:32.957Z,23.70
2022-12-17T06:46:09.049Z,23.70
2022-12-17T06:50:01.283Z,23.70
2022-12-17T06:53:39.273Z,23.70
2022-12-17T06:57:21.145Z,23.70
2022-12-17T07:04:51.209Z,23.70
2022-12-17T07:08:21.238Z,23.70
2022-12-17T07:11:57.338Z,23.70
2022-12-17T07:15:39.305Z,23.70
2022-12-17T07:19:27.617Z,23.70
2022-12-17T07:26:38.532Z,23.70
2022-12-17T07:29:57.121Z,23.60
2022-12-17T07:33:15.452Z,23.60
2022-12-17T07:36:45.268Z,23.70
2022-12-17T07:40:09.201Z,23.70
2022-12-17T07:43:39.390Z,23.70
2022-12-17T07:47:03.572Z,23.60
2022-12-17T07:50:33.601Z,23.60
2022-12-17T07:54:02.775Z,23.60
2022-12-17T07:57:44.800Z,23.60
2022-12-17T08:01:21.785Z,23.70
2022-12-17T08:05:02.862Z,23.70
2022-12-17T08:08:33.768Z,23.60
2022-12-17T08:15:22.912Z,23.60
2022-12-17T08:18:38.980Z,23.70
2022-12-17T08:21:51.904Z,23.60
2022-12-17T08:25:03.033Z,23.60
2022-12-17T08:28:41.606Z,23.60
2022-12-17T08:31:58.004Z,23.60
2022-12-17T08:35:10.396Z,23.60
2022-12-17T08:38:28.034Z,23.60
2022-12-17T08:41:51.090Z,23.70
2022-12-17T08:45:22.142Z,23.70
2022-12-17T08:48:46.500Z,23.70
2022-12-17T08:52:10.533Z,23.60
2022-12-17T08:55:28.241Z,23.70
2022-12-17T08:58:43.060Z,23.70
2022-12-17T09:02:03.498Z,23.70
2022-12-17T09:05:28.342Z,23.70
2022-12-17T09:08:45.420Z,23.70
2022-12-17T09:12:04.408Z,23.70
2022-12-17T09:15:15.473Z,23.70
2022-12-17T09:18:34.466Z,23.70
2022-12-17T09:22:16.502Z,23.70
2022-12-17T09:25:22.529Z,23.70
2022-12-17T09:28:40.563Z,23.70
2022-12-17T09:31:51.303Z,23.70
2022-12-17T09:34:58.618Z,23.70
2022-12-17T09:38:22.649Z,23.70
2022-12-17T09:41:58.683Z,23.70
2022-12-17T09:45:16.714Z,23.70
2022-12-17T09:48:41.054Z,23.70
2022-12-17T09:52:04.778Z,23.70
2022-12-17T09:55:42.413Z,23.80
2022-12-17T10:03:05.356Z,23.80
2022-12-17T10:06:23.224Z,23.80
2022-12-17T10:09:46.943Z,23.90
2022-12-17T10:13:23.285Z,23.90
2022-12-17T10:16:58.001Z,23.90
2022-12-17T10:20:29.349Z,23.90
2022-12-17T10:27:29.408Z,23.90
2022-12-17T10:30:29.432Z,23.90
2022-12-17T10:37:59.500Z,23.90
2022-12-17T10:41:24.109Z,23.90
2022-12-17T10:44:54.923Z,24.00
2022-12-17T10:48:22.262Z,24.00
2022-12-17T10:51:46.292Z,24.00
2022-12-17T10:55:16.321Z,23.90
2022-12-17T10:58:47.698Z,24.00
2022-12-17T11:02:22.527Z,24.00
2022-12-17T11:05:56.309Z,24.00
2022-12-17T11:09:28.437Z,24.00
2022-12-17T11:13:05.830Z,24.00
2022-12-17T11:16:41.860Z,24.00
2022-12-17T11:20:05.888Z,24.00
2022-12-17T11:23:33.713Z,24.00
2022-12-17T11:26:59.958Z,24.00
2022-12-17T11:30:44.010Z,24.00
2022-12-17T11:41:47.783Z,24.10
2022-12-17T11:45:30.178Z,24.10
2022-12-17T11:49:06.159Z,24.10
2022-12-17T11:52:53.883Z,24.00
2022-12-17T11:56:24.220Z,24.00
2022-12-17T12:04:06.326Z,24.10
2022-12-17T12:07:48.332Z,24.10
2022-12-17T12:11:36.368Z,24.10
2022-12-17T12:15:09.041Z,24.10
2022-12-17T13:02:30.733Z,24.10
2022-12-17T13:10:12.673Z,24.10
2022-12-17T13:14:17.413Z,24.10
2022-12-17T13:18:12.742Z,24.10
2022-12-17T13:21:53.261Z,24.10
2022-12-17T13:29:12.597Z,24.10
2022-12-17T13:33:00.874Z,24.10
2022-12-17T13:36:48.903Z,24.10
2022-12-17T13:44:42.975Z,24.10
2022-12-17T14:00:23.861Z,24.10
2022-12-17T14:09:02.740Z,24.10
2022-12-17T14:12:42.903Z,24.10
2022-12-17T14:40:19.459Z,24.00
2022-12-17T14:43:52.712Z,24.00
2022-12-17T14:47:19.520Z,24.00
2022-12-17T14:51:03.234Z,24.00
2022-12-17T14:54:31.108Z,24.00
2022-12-17T14:58:03.075Z,24.00
2022-12-17T15:01:31.749Z,23.90
2022-12-17T15:04:57.153Z,23.90
2022-12-17T15:08:19.705Z,23.90
2022-12-17T15:11:49.737Z,23.90
2022-12-17T15:15:13.767Z,23.90
2022-12-17T15:18:38.119Z,23.90
2022-12-17T15:22:01.826Z,23.80
2022-12-17T15:25:25.856Z,23.80
2022-12-17T15:28:49.888Z,23.80
2022-12-17T15:31:55.918Z,23.80
2022-12-17T15:34:58.384Z,23.80
2022-12-17T15:38:22.417Z,23.80
2022-12-17T15:41:51.514Z,23.70
2022-12-17T15:45:21.543Z,23.70
2022-12-17T15:49:04.511Z,23.70
2022-12-17T15:52:40.548Z,23.70
2022-12-17T15:56:04.577Z,23.70
2022-12-17T16:02:58.913Z,23.70
2022-12-17T16:06:35.638Z,23.70
2022-12-17T16:10:04.530Z,23.60
2022-12-17T16:17:04.770Z,23.60
2022-12-17T16:27:55.951Z,23.60
2022-12-17T16:30:58.924Z,23.60
2022-12-17T16:34:27.953Z,23.60
2022-12-17T16:37:56.309Z,23.60
2022-12-17T16:52:29.080Z,23.50
2022-12-17T16:59:46.181Z,23.50
2022-12-17T17:03:11.299Z,23.50
2022-12-17T17:06:11.196Z,23.50
2022-12-17T17:09:46.278Z,23.50
2022-12-17T17:13:11.267Z,23.50
2022-12-17T17:20:17.331Z,23.50
2022-12-17T17:27:11.393Z,23.50
2022-12-17T17:30:40.489Z,23.50
2022-12-17T17:34:17.460Z,23.40
2022-12-17T17:37:53.493Z,23.40
2022-12-17T17:41:17.525Z,23.50
2022-12-17T17:48:28.645Z,23.40
2022-12-17T17:55:35.663Z,23.40
2022-12-17T18:02:29.970Z,23.40
2022-12-17T18:09:52.878Z,23.40
2022-12-17T18:13:28.861Z,23.30
2022-12-17T18:16:41.893Z,23.40
2022-12-17T18:19:52.972Z,23.40
2022-12-17T18:23:11.088Z,23.30
2022-12-17T18:26:35.337Z,23.40
2022-12-17T18:29:38.904Z,23.40
2022-12-17T18:32:47.038Z,23.30
2022-12-17T18:35:58.749Z,23.30
2022-12-17T18:39:28.970Z,23.30
2022-12-17T18:43:04.995Z,23.30
2022-12-17T18:46:35.057Z,23.30
2022-12-17T18:50:05.057Z,23.30
2022-12-17T18:53:35.092Z,23.30
2022-12-17T18:57:01.712Z,23.30
2022-12-17T19:04:11.198Z,23.30
2022-12-17T19:07:23.232Z,23.30
2022-12-17T19:10:30.389Z,23.30
2022-12-17T19:13:59.296Z,23.30
2022-12-17T19:17:41.329Z,23.30
2022-12-17T19:21:11.362Z,23.30
2022-12-17T19:24:47.390Z,23.30
2022-12-17T19:33:05.463Z,23.30
2022-12-17T20:29:59.953Z,23.20
2022-12-17T20:33:47.985Z,23.10
2022-12-17T20:37:08.031Z,23.10
2022-12-17T20:40:24.044Z,23.10
2022-12-17T20:43:54.074Z,23.10
2022-12-17T20:47:30.105Z,23.10
2022-12-17T20:51:00.135Z,23.10
2022-12-17T20:54:38.866Z,23.10
2022-12-17T20:57:38.894Z,23.10
2022-12-17T21:01:06.347Z,23.10
2022-12-17T21:04:36.282Z,23.10
2022-12-17T21:08:18.318Z,23.10
2022-12-17T21:11:51.013Z,23.10
2022-12-17T21:15:15.042Z,23.10
2022-12-17T21:18:39.462Z,23.10
2022-12-17T21:22:06.436Z,23.10
2022-12-17T21:25:48.469Z,23.10
2022-12-17T21:29:24.500Z,23.10
2022-12-17T21:32:54.534Z,23.10
2022-12-17T21:36:30.565Z,23.10
2022-12-17T21:39:59.594Z,23.10
2022-12-17T21:43:30.625Z,23.10
2022-12-17T21:47:00.653Z,23.00
2022-12-17T21:50:36.683Z,23.00
2022-12-17T21:54:18.959Z,23.00
2022-12-17T21:57:54.749Z,23.00
2022-12-17T22:01:36.822Z,23.00
2022-12-17T22:05:17.597Z,23.00
2022-12-17T22:08:42.842Z,23.00
2022-12-17T22:12:30.873Z,23.00
2022-12-17T22:16:01.414Z,23.00
2022-12-17T22:19:43.583Z,23.00
2022-12-17T22:23:13.109Z,23.00
2022-12-17T22:26:55.967Z,23.00
2022-12-17T22:30:27.710Z,23.00
2022-12-17T22:41:14.545Z,22.90
2022-12-17T22:44:42.954Z,22.90
2022-12-17T22:45:45.850Z,22.90
2022-12-17T22:49:05.396Z,23.00
2022-12-17T22:52:25.280Z,22.90
2022-12-17T22:56:18.528Z,23.00
2022-12-17T22:59:49.355Z,22.90
2022-12-17T23:03:19.496Z,22.90
2022-12-17T23:06:49.413Z,22.90
2022-12-17T23:10:25.444Z,22.90
2022-12-17T23:14:04.109Z,22.90
2022-12-17T23:17:31.501Z,22.90
2022-12-17T23:21:01.532Z,22.90
2022-12-17T23:24:31.562Z,22.90
2022-12-17T23:28:01.593Z,22.90
2022-12-17T23:31:37.670Z,22.90
2022-12-17T23:35:10.290Z,22.90
2022-12-17T23:38:37.711Z,22.80
2022-12-17T23:42:07.709Z,22.90
2022-12-17T23:45:43.741Z,22.90
2022-12-17T23:49:25.768Z,22.90
2022-12-17T23:52:37.244Z,22.80
2022-12-17T23:55:46.471Z,22.80
2022-12-17T23:58:54.351Z,22.80
